sensor_id;sensor_type;location;lat;lon;timestamp;temperature;humidity
61351;DHT22;47119;49.130;9.218;2022-12-18T00:00:05;7.16;42.47
61351;DHT22;47119;49.130;9.218;2022-12-18T00:02:39;7.10;42.48
61351;DHT22;47119;49.130;9.218;2022-12-18T00:05:07;7.08;42.59
61351;DHT22;47119;49.130;9.218;2022-12-18T00:07:36;7.10;42.73
61351;DHT22;47119;49.130;9.218;2022-12-18T00:10:05;7.10;42.36
61351;DHT22;47119;49.130;9.218;2022-12-18T00:12:37;7.03;42.90
61351;DHT22;47119;49.130;9.218;2022-12-18T00:15:08;7.00;42.94
61351;DHT22;47119;49.130;9.218;2022-12-18T00:17:35;6.99;42.45
61351;DHT22;47119;49.130;9.218;2022-12-18T00:20:03;6.95;42.43
61351;DHT22;47119;49.130;9.218;2022-12-18T00:22:33;6.95;42.63
61351;DHT22;47119;49.130;9.218;2022-12-18T00:25:04;6.95;42.74
61351;DHT22;47119;49.130;9.218;2022-12-18T00:27:32;6.90;42.88
61351;DHT22;47119;49.130;9.218;2022-12-18T00:29:59;6.96;42.44
61351;DHT22;47119;49.130;9.218;2022-12-18T00:32:26;7.01;42.39
61351;DHT22;47119;49.130;9.218;2022-12-18T00:34:53;6.96;42.59
61351;DHT22;47119;49.130;9.218;2022-12-18T00:37:23;6.96;42.86
61351;DHT22;47119;49.130;9.218;2022-12-18T00:39:51;6.97;42.39
61351;DHT22;47119;49.130;9.218;2022-12-18T00:42:23;6.97;42.54
61351;DHT22;47119;49.130;9.218;2022-12-18T00:45:08;7.03;42.77
61351;DHT22;47119;49.130;9.218;2022-12-18T00:47:35;6.96;42.62
61351;DHT22;47119;49.130;9.218;2022-12-18T00:50:03;7.01;42.76
61351;DHT22;47119;49.130;9.218;2022-12-18T00:52:31;7.01;42.61
61351;DHT22;47119;49.130;9.218;2022-12-18T00:55:00;7.03;42.71
61351;DHT22;47119;49.130;9.218;2022-12-18T00:57:28;7.03;43.24
61351;DHT22;47119;49.130;9.218;2022-12-18T00:59:55;6.99;42.39
61351;DHT22;47119;49.130;9.218;2022-12-18T01:02:25;7.04;42.22
61351;DHT22;47119;49.130;9.218;2022-12-18T01:04:52;7.04;42.32
61351;DHT22;47119;49.130;9.218;2022-12-18T01:07:19;7.06;42.43
61351;DHT22;47119;49.130;9.218;2022-12-18T01:09:47;6.96;42.30
61351;DHT22;47119;49.130;9.218;2022-12-18T01:12:16;6.93;42.19
61351;DHT22;47119;49.130;9.218;2022-12-18T01:14:51;6.97;42.20
61351;DHT22;47119;49.130;9.218;2022-12-18T01:17:22;7.06;42.44
61351;DHT22;47119;49.130;9.218;2022-12-18T01:19:53;7.04;42.18
61351;DHT22;47119;49.130;9.218;2022-12-18T01:22:26;6.93;41.79
61351;DHT22;47119;49.130;9.218;2022-12-18T01:24:53;6.90;41.94
61351;DHT22;47119;49.130;9.218;2022-12-18T01:27:22;6.87;41.94
61351;DHT22;47119;49.130;9.218;2022-12-18T01:29:52;6.82;42.26
61351;DHT22;47119;49.130;9.218;2022-12-18T01:32:19;6.89;42.45
61351;DHT22;47119;49.130;9.218;2022-12-18T01:34:55;6.93;42.50
61351;DHT22;47119;49.130;9.218;2022-12-18T01:37:22;6.96;42.34
61351;DHT22;47119;49.130;9.218;2022-12-18T01:39:50;6.96;41.91
61351;DHT22;47119;49.130;9.218;2022-12-18T01:42:20;6.92;42.13
61351;DHT22;47119;49.130;9.218;2022-12-18T01:44:59;6.87;42.41
61351;DHT22;47119;49.130;9.218;2022-12-18T01:47:35;6.86;42.29
61351;DHT22;47119;49.130;9.218;2022-12-18T01:50:09;6.90;42.45
61351;DHT22;47119;49.130;9.218;2022-12-18T01:52:41;7.00;42.66
61351;DHT22;47119;49.130;9.218;2022-12-18T01:55:12;6.90;42.08
61351;DHT22;47119;49.130;9.218;2022-12-18T01:57:41;6.89;42.02
61351;DHT22;47119;49.130;9.218;2022-12-18T02:00:15;6.97;42.02
61351;DHT22;47119;49.130;9.218;2022-12-18T02:02:45;6.99;41.79
61351;DHT22;47119;49.130;9.218;2022-12-18T02:05:17;6.86;41.68
61351;DHT22;47119;49.130;9.218;2022-12-18T02:08:00;6.90;42.32
61351;DHT22;47119;49.130;9.218;2022-12-18T02:10:45;6.85;42.16
61351;DHT22;47119;49.130;9.218;2022-12-18T02:13:30;6.87;42.31
61351;DHT22;47119;49.130;9.218;2022-12-18T02:16:08;6.96;42.11
61351;DHT22;47119;49.130;9.218;2022-12-18T02:18:48;6.93;42.02
61351;DHT22;47119;49.130;9.218;2022-12-18T02:21:25;6.86;41.89
61351;DHT22;47119;49.130;9.218;2022-12-18T02:24:14;6.93;42.00
61351;DHT22;47119;49.130;9.218;2022-12-18T02:26:55;6.90;42.45
61351;DHT22;47119;49.130;9.218;2022-12-18T02:29:30;6.97;41.87
61351;DHT22;47119;49.130;9.218;2022-12-18T02:32:05;6.93;41.77
61351;DHT22;47119;49.130;9.218;2022-12-18T02:34:39;6.92;41.85
61351;DHT22;47119;49.130;9.218;2022-12-18T02:37:14;6.85;41.94
61351;DHT22;47119;49.130;9.218;2022-12-18T02:39:47;6.75;41.94
61351;DHT22;47119;49.130;9.218;2022-12-18T02:42:18;6.80;42.29
61351;DHT22;47119;49.130;9.218;2022-12-18T02:44:49;6.87;42.21
61351;DHT22;47119;49.130;9.218;2022-12-18T02:47:28;6.93;41.96
61351;DHT22;47119;49.130;9.218;2022-12-18T02:50:06;6.77;42.32
61351;DHT22;47119;49.130;9.218;2022-12-18T02:52:46;6.73;41.97
61351;DHT22;47119;49.130;9.218;2022-12-18T02:55:32;6.77;42.15
61351;DHT22;47119;49.130;9.218;2022-12-18T02:58:16;6.72;42.40
61351;DHT22;47119;49.130;9.218;2022-12-18T03:00:55;6.62;42.74
61351;DHT22;47119;49.130;9.218;2022-12-18T03:03:30;6.69;43.18
61351;DHT22;47119;49.130;9.218;2022-12-18T03:06:08;6.64;43.80
61351;DHT22;47119;49.130;9.218;2022-12-18T03:08:48;6.65;43.81
61351;DHT22;47119;49.130;9.218;2022-12-18T03:11:20;6.44;44.07
61351;DHT22;47119;49.130;9.218;2022-12-18T03:14:13;6.46;44.64
61351;DHT22;47119;49.130;9.218;2022-12-18T03:16:49;6.44;44.43
61351;DHT22;47119;49.130;9.218;2022-12-18T03:19:24;6.39;44.29
61351;DHT22;47119;49.130;9.218;2022-12-18T03:22:02;6.45;44.69
61351;DHT22;47119;49.130;9.218;2022-12-18T03:24:41;6.27;43.93
61351;DHT22;47119;49.130;9.218;2022-12-18T03:27:12;6.22;44.17
61351;DHT22;47119;49.130;9.218;2022-12-18T03:29:48;6.17;44.70
61351;DHT22;47119;49.130;9.218;2022-12-18T03:32:29;6.06;45.02
61351;DHT22;47119;49.130;9.218;2022-12-18T03:35:04;6.15;45.99
61351;DHT22;47119;49.130;9.218;2022-12-18T03:37:36;6.13;45.79
61351;DHT22;47119;49.130;9.218;2022-12-18T03:40:04;6.06;45.40
61351;DHT22;47119;49.130;9.218;2022-12-18T03:42:40;5.91;45.92
61351;DHT22;47119;49.130;9.218;2022-12-18T03:45:23;5.96;46.41
61351;DHT22;47119;49.130;9.218;2022-12-18T03:48:01;5.97;46.35
61351;DHT22;47119;49.130;9.218;2022-12-18T03:50:42;5.90;45.82
61351;DHT22;47119;49.130;9.218;2022-12-18T03:53:20;5.86;45.82
61351;DHT22;47119;49.130;9.218;2022-12-18T03:55:53;5.81;45.88
61351;DHT22;47119;49.130;9.218;2022-12-18T03:58:25;5.86;45.77
61351;DHT22;47119;49.130;9.218;2022-12-18T04:01:12;5.71;45.65
61351;DHT22;47119;49.130;9.218;2022-12-18T04:03:46;5.69;45.69
61351;DHT22;47119;49.130;9.218;2022-12-18T04:06:18;5.53;45.66
61351;DHT22;47119;49.130;9.218;2022-12-18T04:08:46;5.52;45.78
61351;DHT22;47119;49.130;9.218;2022-12-18T04:11:19;5.62;45.60
61351;DHT22;47119;49.130;9.218;2022-12-18T04:13:47;5.60;47.28
61351;DHT22;47119;49.130;9.218;2022-12-18T04:16:26;5.76;47.88
61351;DHT22;47119;49.130;9.218;2022-12-18T04:18:58;5.97;47.51
61351;DHT22;47119;49.130;9.218;2022-12-18T04:21:28;6.07;46.73
61351;DHT22;47119;49.130;9.218;2022-12-18T04:23:55;6.17;46.38
61351;DHT22;47119;49.130;9.218;2022-12-18T04:26:24;6.29;46.07
61351;DHT22;47119;49.130;9.218;2022-12-18T04:29:17;6.10;45.60
61351;DHT22;47119;49.130;9.218;2022-12-18T04:31:46;6.10;45.94
61351;DHT22;47119;49.130;9.218;2022-12-18T04:34:15;6.18;44.83
61351;DHT22;47119;49.130;9.218;2022-12-18T04:36:50;6.29;44.52
61351;DHT22;47119;49.130;9.218;2022-12-18T04:39:21;6.25;44.38
61351;DHT22;47119;49.130;9.218;2022-12-18T04:41:50;6.25;44.29
61351;DHT22;47119;49.130;9.218;2022-12-18T04:44:20;6.37;43.71
61351;DHT22;47119;49.130;9.218;2022-12-18T04:46:52;6.35;43.81
61351;DHT22;47119;49.130;9.218;2022-12-18T04:49:49;6.41;43.48
61351;DHT22;47119;49.130;9.218;2022-12-18T04:52:17;6.49;43.23
61351;DHT22;47119;49.130;9.218;2022-12-18T04:54:44;6.50;43.13
61351;DHT22;47119;49.130;9.218;2022-12-18T04:57:31;6.53;42.83
61351;DHT22;47119;49.130;9.218;2022-12-18T05:00:28;6.58;42.45
61351;DHT22;47119;49.130;9.218;2022-12-18T05:03:02;6.58;42.42
61351;DHT22;47119;49.130;9.218;2022-12-18T05:05:42;6.59;42.43
61351;DHT22;47119;49.130;9.218;2022-12-18T05:08:09;6.61;42.42
61351;DHT22;47119;49.130;9.218;2022-12-18T05:10:40;6.53;42.27
61351;DHT22;47119;49.130;9.218;2022-12-18T05:13:11;6.48;42.86
61351;DHT22;47119;49.130;9.218;2022-12-18T05:15:51;6.56;42.41
61351;DHT22;47119;49.130;9.218;2022-12-18T05:18:28;6.49;42.20
61351;DHT22;47119;49.130;9.218;2022-12-18T05:21:00;6.45;42.47
61351;DHT22;47119;49.130;9.218;2022-12-18T05:23:31;6.48;42.43
61351;DHT22;47119;49.130;9.218;2022-12-18T05:26:03;6.46;42.14
61351;DHT22;47119;49.130;9.218;2022-12-18T05:28:34;6.53;42.14
61351;DHT22;47119;49.130;9.218;2022-12-18T05:31:03;6.53;42.57
61351;DHT22;47119;49.130;9.218;2022-12-18T05:33:35;6.56;42.37
61351;DHT22;47119;49.130;9.218;2022-12-18T05:36:04;6.62;42.18
61351;DHT22;47119;49.130;9.218;2022-12-18T05:38:37;6.55;41.86
61351;DHT22;47119;49.130;9.218;2022-12-18T05:41:05;6.52;42.12
61351;DHT22;47119;49.130;9.218;2022-12-18T05:43:37;6.53;42.15
61351;DHT22;47119;49.130;9.218;2022-12-18T05:46:05;6.58;41.87
61351;DHT22;47119;49.130;9.218;2022-12-18T05:48:35;6.49;41.58
61351;DHT22;47119;49.130;9.218;2022-12-18T05:51:06;6.48;41.85
61351;DHT22;47119;49.130;9.218;2022-12-18T05:53:35;6.56;42.05
61351;DHT22;47119;49.130;9.218;2022-12-18T05:56:11;6.53;41.90
61351;DHT22;47119;49.130;9.218;2022-12-18T05:58:41;6.52;42.11
61351;DHT22;47119;49.130;9.218;2022-12-18T06:01:11;6.49;41.80
61351;DHT22;47119;49.130;9.218;2022-12-18T06:03:42;6.48;41.93
61351;DHT22;47119;49.130;9.218;2022-12-18T06:06:14;6.37;42.17
61351;DHT22;47119;49.130;9.218;2022-12-18T06:08:43;6.48;42.25
61351;DHT22;47119;49.130;9.218;2022-12-18T06:11:11;6.38;41.86
61351;DHT22;47119;49.130;9.218;2022-12-18T06:13:50;6.45;42.21
61351;DHT22;47119;49.130;9.218;2022-12-18T06:16:23;6.39;42.82
61351;DHT22;47119;49.130;9.218;2022-12-18T06:19:30;6.32;43.40
61351;DHT22;47119;49.130;9.218;2022-12-18T06:22:18;6.31;43.95
61351;DHT22;47119;49.130;9.218;2022-12-18T06:24:55;6.14;43.26
61351;DHT22;47119;49.130;9.218;2022-12-18T06:27:27;6.04;44.80
61351;DHT22;47119;49.130;9.218;2022-12-18T06:30:14;6.03;44.86
61351;DHT22;47119;49.130;9.218;2022-12-18T06:32:54;6.20;44.28
61351;DHT22;47119;49.130;9.218;2022-12-18T06:35:41;6.35;43.99
61351;DHT22;47119;49.130;9.218;2022-12-18T06:38:18;6.39;43.52
61351;DHT22;47119;49.130;9.218;2022-12-18T06:40:55;6.34;43.40
61351;DHT22;47119;49.130;9.218;2022-12-18T06:43:35;6.24;42.86
61351;DHT22;47119;49.130;9.218;2022-12-18T06:46:22;6.32;43.06
61351;DHT22;47119;49.130;9.218;2022-12-18T06:49:15;6.41;42.64
61351;DHT22;47119;49.130;9.218;2022-12-18T06:51:50;6.35;42.11
61351;DHT22;47119;49.130;9.218;2022-12-18T06:54:42;6.35;42.39
61351;DHT22;47119;49.130;9.218;2022-12-18T06:57:19;6.37;42.01
61351;DHT22;47119;49.130;9.218;2022-12-18T07:00:14;6.42;42.63
61351;DHT22;47119;49.130;9.218;2022-12-18T07:02:46;6.35;42.34
61351;DHT22;47119;49.130;9.218;2022-12-18T07:05:13;6.42;42.34
61351;DHT22;47119;49.130;9.218;2022-12-18T07:08:02;6.52;41.84
61351;DHT22;47119;49.130;9.218;2022-12-18T07:10:41;6.50;42.20
61351;DHT22;47119;49.130;9.218;2022-12-18T07:13:12;6.52;42.03
61351;DHT22;47119;49.130;9.218;2022-12-18T07:16:08;6.50;41.56
61351;DHT22;47119;49.130;9.218;2022-12-18T07:18:42;6.49;41.69
61351;DHT22;47119;49.130;9.218;2022-12-18T07:21:16;6.48;41.90
61351;DHT22;47119;49.130;9.218;2022-12-18T07:23:56;6.53;41.91
61351;DHT22;47119;49.130;9.218;2022-12-18T07:26:27;6.59;41.72
61351;DHT22;47119;49.130;9.218;2022-12-18T07:28:57;6.55;41.59
61351;DHT22;47119;49.130;9.218;2022-12-18T07:31:45;6.52;41.36
61351;DHT22;47119;49.130;9.218;2022-12-18T07:34:13;6.50;41.76
61351;DHT22;47119;49.130;9.218;2022-12-18T07:36:44;6.48;41.48
61351;DHT22;47119;49.130;9.218;2022-12-18T07:39:19;6.52;41.90
61351;DHT22;47119;49.130;9.218;2022-12-18T07:41:48;6.59;42.04
61351;DHT22;47119;49.130;9.218;2022-12-18T07:44:39;6.65;41.67
61351;DHT22;47119;49.130;9.218;2022-12-18T07:47:08;6.69;41.64
61351;DHT22;47119;49.130;9.218;2022-12-18T07:49:36;6.71;41.71
61351;DHT22;47119;49.130;9.218;2022-12-18T07:52:14;6.73;41.79
61351;DHT22;47119;49.130;9.218;2022-12-18T07:54:56;6.76;41.46
61351;DHT22;47119;49.130;9.218;2022-12-18T07:57:24;6.85;41.45
61351;DHT22;47119;49.130;9.218;2022-12-18T07:59:54;6.80;41.46
61351;DHT22;47119;49.130;9.218;2022-12-18T08:02:30;6.85;41.31
61351;DHT22;47119;49.130;9.218;2022-12-18T08:05:00;6.89;41.28
61351;DHT22;47119;49.130;9.218;2022-12-18T08:07:30;6.95;41.56
61351;DHT22;47119;49.130;9.218;2022-12-18T08:10:01;6.96;41.65
61351;DHT22;47119;49.130;9.218;2022-12-18T08:12:28;6.99;41.39
61351;DHT22;47119;49.130;9.218;2022-12-18T08:15:00;7.03;41.57
61351;DHT22;47119;49.130;9.218;2022-12-18T08:17:37;7.01;41.23
61351;DHT22;47119;49.130;9.218;2022-12-18T08:20:09;7.06;41.84
61351;DHT22;47119;49.130;9.218;2022-12-18T08:29:24;7.00;41.65
61351;DHT22;47119;49.130;9.218;2022-12-18T08:31:51;7.03;41.72
61351;DHT22;47119;49.130;9.218;2022-12-18T08:34:33;7.06;41.54
61351;DHT22;47119;49.130;9.218;2022-12-18T08:37:00;6.97;41.48
61351;DHT22;47119;49.130;9.218;2022-12-18T08:39:38;6.93;41.36
61351;DHT22;47119;49.130;9.218;2022-12-18T08:42:09;6.93;41.90
61351;DHT22;47119;49.130;9.218;2022-12-18T08:45:05;6.89;41.81
61351;DHT22;47119;49.130;9.218;2022-12-18T08:47:54;6.80;41.90
61351;DHT22;47119;49.130;9.218;2022-12-18T08:50:22;6.80;42.26
61351;DHT22;47119;49.130;9.218;2022-12-18T08:53:18;6.77;42.58
61351;DHT22;47119;49.130;9.218;2022-12-18T08:56:20;6.79;42.28
61351;DHT22;47119;49.130;9.218;2022-12-18T08:59:36;6.83;42.75
61351;DHT22;47119;49.130;9.218;2022-12-18T09:03:10;6.96;42.34
61351;DHT22;47119;49.130;9.218;2022-12-18T09:05:59;7.04;42.46
61351;DHT22;47119;49.130;9.218;2022-12-18T09:08:38;7.08;42.32
61351;DHT22;47119;49.130;9.218;2022-12-18T09:11:21;7.20;42.14
61351;DHT22;47119;49.130;9.218;2022-12-18T09:13:50;7.30;42.12
61351;DHT22;47119;49.130;9.218;2022-12-18T09:16:20;7.26;42.09
61351;DHT22;47119;49.130;9.218;2022-12-18T09:18:50;7.24;41.81
61351;DHT22;47119;49.130;9.218;2022-12-18T09:21:34;7.30;42.03
61351;DHT22;47119;49.130;9.218;2022-12-18T09:24:35;7.26;41.79
61351;DHT22;47119;49.130;9.218;2022-12-18T09:27:04;7.24;41.94
61351;DHT22;47119;49.130;9.218;2022-12-18T09:29:45;7.34;41.88
61351;DHT22;47119;49.130;9.218;2022-12-18T09:33:04;7.40;41.70
61351;DHT22;47119;49.130;9.218;2022-12-18T09:36:17;7.48;41.41
61351;DHT22;47119;49.130;9.218;2022-12-18T09:39:33;7.51;41.68
61351;DHT22;47119;49.130;9.218;2022-12-18T09:42:45;7.47;41.76
61351;DHT22;47119;49.130;9.218;2022-12-18T09:46:17;7.41;41.97
61351;DHT22;47119;49.130;9.218;2022-12-18T09:49:46;7.48;41.90
61351;DHT22;47119;49.130;9.218;2022-12-18T09:52:59;7.54;41.79
61351;DHT22;47119;49.130;9.218;2022-12-18T09:56:00;7.59;41.77
61351;DHT22;47119;49.130;9.218;2022-12-18T09:58:57;7.44;41.75
61351;DHT22;47119;49.130;9.218;2022-12-18T10:02:16;7.54;41.78
61351;DHT22;47119;49.130;9.218;2022-12-18T10:05:04;7.51;42.00
61351;DHT22;47119;49.130;9.218;2022-12-18T10:07:55;7.58;41.91
61351;DHT22;47119;49.130;9.218;2022-12-18T10:10:53;7.50;42.26
61351;DHT22;47119;49.130;9.218;2022-12-18T10:14:05;7.61;42.15
61351;DHT22;47119;49.130;9.218;2022-12-18T10:17:41;7.61;42.03
61351;DHT22;47119;49.130;9.218;2022-12-18T10:21:11;7.52;41.72
61351;DHT22;47119;49.130;9.218;2022-12-18T10:24:08;7.66;41.98
61351;DHT22;47119;49.130;9.218;2022-12-18T10:27:04;7.52;41.19
61351;DHT22;47119;49.130;9.218;2022-12-18T10:29:49;7.59;42.44
61351;DHT22;47119;49.130;9.218;2022-12-18T10:32:20;7.58;42.10
61351;DHT22;47119;49.130;9.218;2022-12-18T10:34:57;7.62;42.34
61351;DHT22;47119;49.130;9.218;2022-12-18T10:37:29;7.66;42.24
61351;DHT22;47119;49.130;9.218;2022-12-18T10:40:09;7.62;42.23
61351;DHT22;47119;49.130;9.218;2022-12-18T10:42:40;7.72;42.16
61351;DHT22;47119;49.130;9.218;2022-12-18T10:45:35;7.71;42.80
61351;DHT22;47119;49.130;9.218;2022-12-18T10:48:18;7.83;42.13
61351;DHT22;47119;49.130;9.218;2022-12-18T10:51:20;7.85;42.39
61351;DHT22;47119;49.130;9.218;2022-12-18T10:54:12;7.86;42.52
61351;DHT22;47119;49.130;9.218;2022-12-18T10:56:44;7.74;42.89
61351;DHT22;47119;49.130;9.218;2022-12-18T10:59:13;7.79;42.88
61351;DHT22;47119;49.130;9.218;2022-12-18T11:01:50;7.88;42.81
61351;DHT22;47119;49.130;9.218;2022-12-18T11:04:23;7.85;42.47
61351;DHT22;47119;49.130;9.218;2022-12-18T11:06:54;7.83;42.75
61351;DHT22;47119;49.130;9.218;2022-12-18T11:09:26;7.81;42.52
61351;DHT22;47119;49.130;9.218;2022-12-18T11:11:56;7.93;42.79
61351;DHT22;47119;49.130;9.218;2022-12-18T11:14:27;7.90;42.57
61351;DHT22;47119;49.130;9.218;2022-12-18T11:16:59;7.90;42.95
61351;DHT22;47119;49.130;9.218;2022-12-18T11:19:32;7.83;42.84
61351;DHT22;47119;49.130;9.218;2022-12-18T11:22:04;7.90;43.15
61351;DHT22;47119;49.130;9.218;2022-12-18T11:24:55;7.88;43.23
61351;DHT22;47119;49.130;9.218;2022-12-18T11:27:26;7.86;42.93
61351;DHT22;47119;49.130;9.218;2022-12-18T11:30:07;7.95;42.69
61351;DHT22;47119;49.130;9.218;2022-12-18T11:32:39;7.93;43.00
61351;DHT22;47119;49.130;9.218;2022-12-18T11:35:17;7.95;42.86
61351;DHT22;47119;49.130;9.218;2022-12-18T11:37:50;8.02;43.23
61351;DHT22;47119;49.130;9.218;2022-12-18T11:40:27;8.03;43.38
61351;DHT22;47119;49.130;9.218;2022-12-18T11:43:07;7.97;43.30
61351;DHT22;47119;49.130;9.218;2022-12-18T11:45:45;7.90;43.64
61351;DHT22;47119;49.130;9.218;2022-12-18T11:48:21;7.90;43.65
61351;DHT22;47119;49.130;9.218;2022-12-18T11:50:53;7.89;43.96
61351;DHT22;47119;49.130;9.218;2022-12-18T11:53:22;7.83;43.85
61351;DHT22;47119;49.130;9.218;2022-12-18T11:56:02;7.82;43.51
61351;DHT22;47119;49.130;9.218;2022-12-18T11:58:55;7.76;44.19
61351;DHT22;47119;49.130;9.218;2022-12-18T12:01:40;7.81;43.88
61351;DHT22;47119;49.130;9.218;2022-12-18T12:04:31;7.78;43.96
61351;DHT22;47119;49.130;9.218;2022-12-18T12:07:21;7.83;44.15
61351;DHT22;47119;49.130;9.218;2022-12-18T12:10:07;7.92;44.46
61351;DHT22;47119;49.130;9.218;2022-12-18T12:12:55;7.92;43.53
61351;DHT22;47119;49.130;9.218;2022-12-18T12:15:40;8.02;43.97
61351;DHT22;47119;49.130;9.218;2022-12-18T12:18:27;7.96;43.76
61351;DHT22;47119;49.130;9.218;2022-12-18T12:21:12;8.12;43.91
61351;DHT22;47119;49.130;9.218;2022-12-18T12:23:53;8.17;43.86
61351;DHT22;47119;49.130;9.218;2022-12-18T12:26:33;8.07;44.11
61351;DHT22;47119;49.130;9.218;2022-12-18T12:29:49;8.05;43.68
61351;DHT22;47119;49.130;9.218;2022-12-18T12:33:12;8.19;43.71
61351;DHT22;47119;49.130;9.218;2022-12-18T12:35:57;8.19;43.91
61351;DHT22;47119;49.130;9.218;2022-12-18T12:38:41;8.13;43.78
61351;DHT22;47119;49.130;9.218;2022-12-18T12:41:13;8.09;43.55
61351;DHT22;47119;49.130;9.218;2022-12-18T12:43:59;8.26;43.93
61351;DHT22;47119;49.130;9.218;2022-12-18T12:46:36;8.23;44.04
61351;DHT22;47119;49.130;9.218;2022-12-18T12:49:11;8.34;43.73
61351;DHT22;47119;49.130;9.218;2022-12-18T12:51:43;8.20;43.57
61351;DHT22;47119;49.130;9.218;2022-12-18T12:54:16;8.19;43.68
61351;DHT22;47119;49.130;9.218;2022-12-18T12:56:49;8.23;43.28
61351;DHT22;47119;49.130;9.218;2022-12-18T12:59:30;8.19;43.42
61351;DHT22;47119;49.130;9.218;2022-12-18T13:02:16;8.17;43.34
61351;DHT22;47119;49.130;9.218;2022-12-18T13:05:41;8.22;43.98
61351;DHT22;47119;49.130;9.218;2022-12-18T13:08:30;8.23;43.82
61351;DHT22;47119;49.130;9.218;2022-12-18T13:17:05;8.23;43.98
61351;DHT22;47119;49.130;9.218;2022-12-18T13:20:42;8.27;44.36
61351;DHT22;47119;49.130;9.218;2022-12-18T13:23:37;8.27;44.09
61351;DHT22;47119;49.130;9.218;2022-12-18T13:26:33;8.27;43.89
61351;DHT22;47119;49.130;9.218;2022-12-18T13:29:03;8.26;43.89
61351;DHT22;47119;49.130;9.218;2022-12-18T13:31:58;8.32;43.98
61351;DHT22;47119;49.130;9.218;2022-12-18T13:34:47;8.33;44.37
61351;DHT22;47119;49.130;9.218;2022-12-18T13:37:43;8.32;44.48
61351;DHT22;47119;49.130;9.218;2022-12-18T13:40:56;8.30;44.50
61351;DHT22;47119;49.130;9.218;2022-12-18T13:43:40;8.30;44.33
61351;DHT22;47119;49.130;9.218;2022-12-18T13:46:43;8.34;44.12
61351;DHT22;47119;49.130;9.218;2022-12-18T13:49:22;8.37;44.42
61351;DHT22;47119;49.130;9.218;2022-12-18T13:51:58;8.33;44.41
61351;DHT22;47119;49.130;9.218;2022-12-18T13:54:42;8.36;44.28
61351;DHT22;47119;49.130;9.218;2022-12-18T13:57:26;8.40;44.15
61351;DHT22;47119;49.130;9.218;2022-12-18T14:00:23;8.38;44.02
61351;DHT22;47119;49.130;9.218;2022-12-18T14:03:21;8.46;44.43
61351;DHT22;47119;49.130;9.218;2022-12-18T14:06:06;8.44;44.41
61351;DHT22;47119;49.130;9.218;2022-12-18T14:08:43;8.54;43.66
61351;DHT22;47119;49.130;9.218;2022-12-18T14:11:22;8.47;43.19
61351;DHT22;47119;49.130;9.218;2022-12-18T14:13:58;8.47;43.67
61351;DHT22;47119;49.130;9.218;2022-12-18T14:16:30;8.48;44.20
61351;DHT22;47119;49.130;9.218;2022-12-18T14:19:08;8.47;44.17
61351;DHT22;47119;49.130;9.218;2022-12-18T14:21:52;8.48;44.68
61351;DHT22;47119;49.130;9.218;2022-12-18T14:24:35;8.46;44.34
61351;DHT22;47119;49.130;9.218;2022-12-18T14:31:40;8.48;44.51
61351;DHT22;47119;49.130;9.218;2022-12-18T14:35:17;8.58;44.51
61351;DHT22;47119;49.130;9.218;2022-12-18T14:37:49;8.51;44.18
61351;DHT22;47119;49.130;9.218;2022-12-18T14:40:21;8.46;44.96
61351;DHT22;47119;49.130;9.218;2022-12-18T14:43:11;8.37;44.78
61351;DHT22;47119;49.130;9.218;2022-12-18T14:45:46;8.40;45.15
61351;DHT22;47119;49.130;9.218;2022-12-18T14:48:20;8.33;45.13
61351;DHT22;47119;49.130;9.218;2022-12-18T14:51:12;8.33;45.37
61351;DHT22;47119;49.130;9.218;2022-12-18T14:53:52;8.23;45.17
61351;DHT22;47119;49.130;9.218;2022-12-18T14:56:26;8.22;45.50
61351;DHT22;47119;49.130;9.218;2022-12-18T14:59:04;8.17;45.67
61351;DHT22;47119;49.130;9.218;2022-12-18T15:02:03;8.19;45.50
61351;DHT22;47119;49.130;9.218;2022-12-18T15:05:00;8.10;45.90
61351;DHT22;47119;49.130;9.218;2022-12-18T15:07:40;8.03;46.16
61351;DHT22;47119;49.130;9.218;2022-12-18T15:10:15;8.02;46.20
61351;DHT22;47119;49.130;9.218;2022-12-18T15:13:08;8.06;46.36
61351;DHT22;47119;49.130;9.218;2022-12-18T15:16:00;8.09;46.13
61351;DHT22;47119;49.130;9.218;2022-12-18T15:18:33;8.12;46.15
61351;DHT22;47119;49.130;9.218;2022-12-18T15:21:20;8.13;45.82
61351;DHT22;47119;49.130;9.218;2022-12-18T15:23:51;8.17;45.80
61351;DHT22;47119;49.130;9.218;2022-12-18T15:26:22;8.27;45.61
61351;DHT22;47119;49.130;9.218;2022-12-18T15:28:50;8.37;44.78
61351;DHT22;47119;49.130;9.218;2022-12-18T15:31:31;8.37;46.10
61351;DHT22;47119;49.130;9.218;2022-12-18T15:34:12;8.33;45.74
61351;DHT22;47119;49.130;9.218;2022-12-18T15:36:57;8.41;45.97
61351;DHT22;47119;49.130;9.218;2022-12-18T15:39:41;8.41;46.14
61351;DHT22;47119;49.130;9.218;2022-12-18T15:42:08;8.43;45.40
61351;DHT22;47119;49.130;9.218;2022-12-18T15:44:54;8.43;45.48
61351;DHT22;47119;49.130;9.218;2022-12-18T15:47:21;8.36;46.01
61351;DHT22;47119;49.130;9.218;2022-12-18T15:49:59;8.36;46.17
61351;DHT22;47119;49.130;9.218;2022-12-18T15:52:31;8.32;45.84
61351;DHT22;47119;49.130;9.218;2022-12-18T15:55:10;8.26;45.82
61351;DHT22;47119;49.130;9.218;2022-12-18T15:57:56;8.26;46.09
61351;DHT22;47119;49.130;9.218;2022-12-18T16:00:24;8.22;46.25
61351;DHT22;47119;49.130;9.218;2022-12-18T16:02:52;8.14;45.98
61351;DHT22;47119;49.130;9.218;2022-12-18T16:05:20;8.13;45.76
61351;DHT22;47119;49.130;9.218;2022-12-18T16:07:50;8.12;45.92
61351;DHT22;47119;49.130;9.218;2022-12-18T16:10:19;8.09;46.34
61351;DHT22;47119;49.130;9.218;2022-12-18T16:12:47;8.07;46.19
61351;DHT22;47119;49.130;9.218;2022-12-18T16:15:17;8.05;46.22
61351;DHT22;47119;49.130;9.218;2022-12-18T16:17:47;8.00;46.37
61351;DHT22;47119;49.130;9.218;2022-12-18T16:20:16;7.97;45.97
61351;DHT22;47119;49.130;9.218;2022-12-18T16:22:47;7.92;46.13
61351;DHT22;47119;49.130;9.218;2022-12-18T16:25:19;7.90;46.56
61351;DHT22;47119;49.130;9.218;2022-12-18T16:27:50;7.85;46.20
61351;DHT22;47119;49.130;9.218;2022-12-18T16:30:21;7.82;46.71
61351;DHT22;47119;49.130;9.218;2022-12-18T16:32:53;7.81;46.26
61351;DHT22;47119;49.130;9.218;2022-12-18T16:35:26;7.79;46.54
61351;DHT22;47119;49.130;9.218;2022-12-18T16:37:54;7.69;46.38
61351;DHT22;47119;49.130;9.218;2022-12-18T16:40:22;7.69;46.48
61351;DHT22;47119;49.130;9.218;2022-12-18T16:42:53;7.72;46.50
61351;DHT22;47119;49.130;9.218;2022-12-18T16:45:20;7.71;46.69
61351;DHT22;47119;49.130;9.218;2022-12-18T16:47:48;7.66;46.66
61351;DHT22;47119;49.130;9.218;2022-12-18T16:50:17;7.59;46.97
61351;DHT22;47119;49.130;9.218;2022-12-18T16:52:44;7.57;46.93
61351;DHT22;47119;49.130;9.218;2022-12-18T16:55:13;7.69;46.79
61351;DHT22;47119;49.130;9.218;2022-12-18T16:57:41;7.83;46.74
61351;DHT22;47119;49.130;9.218;2022-12-18T17:00:12;7.93;46.37
61351;DHT22;47119;49.130;9.218;2022-12-18T17:02:40;7.97;46.30
61351;DHT22;47119;49.130;9.218;2022-12-18T17:05:07;7.99;46.10
61351;DHT22;47119;49.130;9.218;2022-12-18T17:07:39;8.07;46.12
61351;DHT22;47119;49.130;9.218;2022-12-18T17:10:13;8.09;46.20
61351;DHT22;47119;49.130;9.218;2022-12-18T17:12:42;8.16;45.83
61351;DHT22;47119;49.130;9.218;2022-12-18T17:15:11;8.20;45.45